sensor_id;sensor_type;location;lat;lon;timestamp;P1;durP1;ratioP1;P2;durP2;ratioP2
38653;SDS011;24413;52.450;20.706;2024-01-06T00:02:06;22.08;;;12.55;;
38653;SDS011;24413;52.450;20.706;2024-01-06T00:04:32;25.02;;;12.82;;
38653;SDS011;24413;52.450;20.706;2024-01-06T00:06:57;29.48;;;15.68;;
38653;SDS011;24413;52.450;20.706;2024-01-06T00:09:23;31.73;;;16.35;;
38653;SDS011;24413;52.450;20.706;2024-01-06T00:11:48;34.22;;;17.33;;
38653;SDS011;24413;52.450;20.706;2024-01-06T00:14:13;36.83;;;17.35;;
38653;SDS011;24413;52.450;20.706;2024-01-06T00:16:39;39.42;;;18.23;;
38653;SDS011;24413;52.450;20.706;2024-01-06T00:19:04;46.78;;;18.60;;
38653;SDS011;24413;52.450;20.706;2024-01-06T00:21:30;39.13;;;17.40;;
38653;SDS011;24413;52.450;20.706;2024-01-06T00:23:55;35.05;;;17.98;;
38653;SDS011;24413;52.450;20.706;2024-01-06T00:26:23;33.47;;;17.27;;
38653;SDS011;24413;52.450;20.706;2024-01-06T00:28:52;33.72;;;15.77;;
38653;SDS011;24413;52.450;20.706;2024-01-06T00:31:17;40.28;;;16.88;;
38653;SDS011;24413;52.450;20.706;2024-01-06T00:33:43;32.15;;;16.80;;
38653;SDS011;24413;52.450;20.706;2024-01-06T00:36:08;39.50;;;19.52;;
38653;SDS011;24413;52.450;20.706;2024-01-06T00:38:34;33.78;;;16.35;;
38653;SDS011;24413;52.450;20.706;2024-01-06T00:41:00;40.10;;;18.02;;
38653;SDS011;24413;52.450;20.706;2024-01-06T00:43:26;34.22;;;16.30;;
38653;SDS011;24413;52.450;20.706;2024-01-06T00:45:51;27.08;;;13.85;;
38653;SDS011;24413;52.450;20.706;2024-01-06T00:48:16;28.08;;;14.10;;
38653;SDS011;24413;52.450;20.706;2024-01-06T00:50:42;30.15;;;13.77;;
38653;SDS011;24413;52.450;20.706;2024-01-06T00:53:07;30.40;;;13.32;;
38653;SDS011;24413;52.450;20.706;2024-01-06T00:55:33;20.98;;;11.82;;
38653;SDS011;24413;52.450;20.706;2024-01-06T00:57:58;25.95;;;12.85;;
38653;SDS011;24413;52.450;20.706;2024-01-06T01:00:23;26.45;;;11.70;;
38653;SDS011;24413;52.450;20.706;2024-01-06T01:02:49;22.63;;;12.13;;
38653;SDS011;24413;52.450;20.706;2024-01-06T01:05:14;24.55;;;12.13;;
38653;SDS011;24413;52.450;20.706;2024-01-06T01:07:39;23.42;;;11.75;;
38653;SDS011;24413;52.450;20.706;2024-01-06T01:10:05;23.60;;;13.30;;
38653;SDS011;24413;52.450;20.706;2024-01-06T01:12:31;20.63;;;11.18;;
38653;SDS011;24413;52.450;20.706;2024-01-06T01:14:56;21.60;;;11.38;;
38653;SDS011;24413;52.450;20.706;2024-01-06T01:17:22;19.30;;;11.05;;
38653;SDS011;24413;52.450;20.706;2024-01-06T01:19:47;18.42;;;10.63;;
38653;SDS011;24413;52.450;20.706;2024-01-06T01:22:12;17.00;;;9.55;;
38653;SDS011;24413;52.450;20.706;2024-01-06T01:24:38;22.40;;;10.50;;
38653;SDS011;24413;52.450;20.706;2024-01-06T01:27:04;18.38;;;10.18;;
38653;SDS011;24413;52.450;20.706;2024-01-06T01:29:29;17.60;;;9.70;;
38653;SDS011;24413;52.450;20.706;2024-01-06T01:31:54;19.65;;;10.63;;
38653;SDS011;24413;52.450;20.706;2024-01-06T01:34:20;15.57;;;10.20;;
38653;SDS011;24413;52.450;20.706;2024-01-06T01:36:45;19.08;;;10.63;;
38653;SDS011;24413;52.450;20.706;2024-01-06T01:39:11;18.52;;;9.90;;
38653;SDS011;24413;52.450;20.706;2024-01-06T01:41:36;18.23;;;9.82;;
38653;SDS011;24413;52.450;20.706;2024-01-06T01:44:01;16.83;;;9.88;;
38653;SDS011;24413;52.450;20.706;2024-01-06T01:46:27;17.88;;;9.68;;
38653;SDS011;24413;52.450;20.706;2024-01-06T01:48:58;19.02;;;9.93;;
38653;SDS011;24413;52.450;20.706;2024-01-06T01:51:26;16.65;;;8.60;;
38653;SDS011;24413;52.450;20.706;2024-01-06T01:53:53;16.88;;;9.05;;
38653;SDS011;24413;52.450;20.706;2024-01-06T01:56:19;13.35;;;8.32;;
38653;SDS011;24413;52.450;20.706;2024-01-06T01:58:45;17.55;;;9.38;;
38653;SDS011;24413;52.450;20.706;2024-01-06T02:01:10;15.43;;;8.88;;
38653;SDS011;24413;52.450;20.706;2024-01-06T02:03:36;15.98;;;9.18;;
38653;SDS011;24413;52.450;20.706;2024-01-06T02:06:02;13.65;;;8.88;;
38653;SDS011;24413;52.450;20.706;2024-01-06T02:08:28;15.80;;;8.82;;
38653;SDS011;24413;52.450;20.706;2024-01-06T02:10:54;14.43;;;8.52;;
38653;SDS011;24413;52.450;20.706;2024-01-06T02:13:21;14.23;;;8.52;;
38653;SDS011;24413;52.450;20.706;2024-01-06T02:15:47;18.50;;;9.70;;
38653;SDS011;24413;52.450;20.706;2024-01-06T02:18:12;16.02;;;8.77;;
38653;SDS011;24413;52.450;20.706;2024-01-06T02:20:38;15.02;;;8.63;;
38653;SDS011;24413;52.450;20.706;2024-01-06T02:23:06;17.20;;;9.32;;
38653;SDS011;24413;52.450;20.706;2024-01-06T02:25:32;20.92;;;9.63;;
38653;SDS011;24413;52.450;20.706;2024-01-06T02:27:58;18.67;;;8.80;;
38653;SDS011;24413;52.450;20.706;2024-01-06T02:30:23;18.00;;;9.18;;
38653;SDS011;24413;52.450;20.706;2024-01-06T02:32:49;17.08;;;10.15;;
38653;SDS011;24413;52.450;20.706;2024-01-06T02:35:14;15.18;;;8.75;;
38653;SDS011;24413;52.450;20.706;2024-01-06T02:37:39;12.10;;;8.30;;
38653;SDS011;24413;52.450;20.706;2024-01-06T02:40:05;14.88;;;8.95;;
38653;SDS011;24413;52.450;20.706;2024-01-06T02:42:31;14.63;;;8.90;;
38653;SDS011;24413;52.450;20.706;2024-01-06T02:44:56;16.88;;;8.80;;
38653;SDS011;24413;52.450;20.706;2024-01-06T02:47:22;14.40;;;8.85;;
38653;SDS011;24413;52.450;20.706;2024-01-06T02:49:47;18.75;;;10.07;;
38653;SDS011;24413;52.450;20.706;2024-01-06T02:52:12;18.65;;;9.80;;
38653;SDS011;24413;52.450;20.706;2024-01-06T02:54:38;15.57;;;8.95;;
38653;SDS011;24413;52.450;20.706;2024-01-06T02:57:03;14.20;;;9.68;;
38653;SDS011;24413;52.450;20.706;2024-01-06T02:59:29;15.55;;;8.90;;
38653;SDS011;24413;52.450;20.706;2024-01-06T03:01:55;13.23;;;9.40;;
38653;SDS011;24413;52.450;20.706;2024-01-06T03:04:20;20.55;;;10.27;;
38653;SDS011;24413;52.450;20.706;2024-01-06T03:06:46;22.38;;;8.85;;
38653;SDS011;24413;52.450;20.706;2024-01-06T03:09:16;16.30;;;9.73;;
38653;SDS011;24413;52.450;20.706;2024-01-06T03:11:42;16.15;;;10.38;;
38653;SDS011;24413;52.450;20.706;2024-01-06T03:14:07;19.10;;;10.43;;
38653;SDS011;24413;52.450;20.706;2024-01-06T03:16:33;17.15;;;10.02;;
38653;SDS011;24413;52.450;20.706;2024-01-06T03:18:59;16.65;;;9.93;;
38653;SDS011;24413;52.450;20.706;2024-01-06T03:21:25;16.90;;;10.32;;
38653;SDS011;24413;52.450;20.706;2024-01-06T03:23:51;14.95;;;9.18;;
38653;SDS011;24413;52.450;20.706;2024-01-06T03:26:17;15.77;;;9.93;;
38653;SDS011;24413;52.450;20.706;2024-01-06T03:28:42;18.85;;;9.98;;
38653;SDS011;24413;52.450;20.706;2024-01-06T03:31:08;15.32;;;9.95;;
38653;SDS011;24413;52.450;20.706;2024-01-06T03:33:33;19.13;;;10.25;;
38653;SDS011;24413;52.450;20.706;2024-01-06T03:36:03;17.83;;;10.02;;
38653;SDS011;24413;52.450;20.706;2024-01-06T03:38:29;22.15;;;11.25;;
38653;SDS011;24413;52.450;20.706;2024-01-06T03:40:54;15.20;;;10.45;;
38653;SDS011;24413;52.450;20.706;2024-01-06T03:43:20;20.83;;;10.30;;
38653;SDS011;24413;52.450;20.706;2024-01-06T03:45:46;16.63;;;10.45;;
38653;SDS011;24413;52.450;20.706;2024-01-06T03:48:11;17.25;;;10.75;;
38653;SDS011;24413;52.450;20.706;2024-01-06T03:50:37;14.55;;;10.02;;
38653;SDS011;24413;52.450;20.706;2024-01-06T03:53:02;17.42;;;9.98;;
38653;SDS011;24413;52.450;20.706;2024-01-06T03:55:27;17.60;;;10.13;;
38653;SDS011;24413;52.450;20.706;2024-01-06T03:57:53;16.08;;;9.95;;
38653;SDS011;24413;52.450;20.706;2024-01-06T04:00:18;17.40;;;10.50;;
38653;SDS011;24413;52.450;20.706;2024-01-06T04:02:44;19.17;;;11.43;;
38653;SDS011;24413;52.450;20.706;2024-01-06T04:05:09;16.98;;;11.30;;
38653;SDS011;24413;52.450;20.706;2024-01-06T04:07:34;18.17;;;11.32;;
38653;SDS011;24413;52.450;20.706;2024-01-06T04:10:00;17.98;;;10.85;;
38653;SDS011;24413;52.450;20.706;2024-01-06T04:12:25;15.60;;;10.50;;
38653;SDS011;24413;52.450;20.706;2024-01-06T04:14:50;21.55;;;11.13;;
38653;SDS011;24413;52.450;20.706;2024-01-06T04:17:16;16.40;;;9.85;;
38653;SDS011;24413;52.450;20.706;2024-01-06T04:19:41;19.08;;;10.98;;
38653;SDS011;24413;52.450;20.706;2024-01-06T04:22:07;18.15;;;11.38;;
38653;SDS011;24413;52.450;20.706;2024-01-06T04:24:32;18.70;;;10.07;;
38653;SDS011;24413;52.450;20.706;2024-01-06T04:27:02;16.00;;;9.93;;
38653;SDS011;24413;52.450;20.706;2024-01-06T04:29:28;17.50;;;10.80;;
38653;SDS011;24413;52.450;20.706;2024-01-06T04:31:53;15.88;;;9.77;;
38653;SDS011;24413;52.450;20.706;2024-01-06T04:34:18;19.83;;;9.73;;
38653;SDS011;24413;52.450;20.706;2024-01-06T04:36:44;20.20;;;10.13;;
38653;SDS011;24413;52.450;20.706;2024-01-06T04:39:09;18.88;;;9.55;;
38653;SDS011;24413;52.450;20.706;2024-01-06T04:41:35;15.55;;;10.32;;
38653;SDS011;24413;52.450;20.706;2024-01-06T04:44:01;17.20;;;10.50;;
38653;SDS011;24413;52.450;20.706;2024-01-06T04:46:27;17.38;;;9.55;;
38653;SDS011;24413;52.450;20.706;2024-01-06T04:48:52;17.17;;;11.00;;
38653;SDS011;24413;52.450;20.706;2024-01-06T04:51:17;18.45;;;10.52;;
38653;SDS011;24413;52.450;20.706;2024-01-06T04:53:43;18.50;;;10.45;;
38653;SDS011;24413;52.450;20.706;2024-01-06T04:56:08;14.45;;;9.07;;
38653;SDS011;24413;52.450;20.706;2024-01-06T04:58:34;15.70;;;10.15;;
38653;SDS011;24413;52.450;20.706;2024-01-06T05:00:59;16.10;;;9.88;;
38653;SDS011;24413;52.450;20.706;2024-01-06T05:03:25;15.15;;;9.68;;
38653;SDS011;24413;52.450;20.706;2024-01-06T05:05:50;18.08;;;9.65;;
38653;SDS011;24413;52.450;20.706;2024-01-06T05:08:16;17.70;;;10.80;;
38653;SDS011;24413;52.450;20.706;2024-01-06T05:10:43;20.30;;;10.27;;
38653;SDS011;24413;52.450;20.706;2024-01-06T05:13:09;13.70;;;8.68;;
38653;SDS011;24413;52.450;20.706;2024-01-06T05:15:34;13.30;;;9.30;;
38653;SDS011;24413;52.450;20.706;2024-01-06T05:17:59;17.15;;;10.13;;
38653;SDS011;24413;52.450;20.706;2024-01-06T05:20:25;15.50;;;9.38;;
38653;SDS011;24413;52.450;20.706;2024-01-06T05:22:50;15.35;;;9.25;;
38653;SDS011;24413;52.450;20.706;2024-01-06T05:25:16;17.70;;;9.15;;
38653;SDS011;24413;52.450;20.706;2024-01-06T05:27:41;14.52;;;9.07;;
38653;SDS011;24413;52.450;20.706;2024-01-06T05:30:07;20.33;;;8.25;;
38653;SDS011;24413;52.450;20.706;2024-01-06T05:32:33;13.90;;;8.68;;
38653;SDS011;24413;52.450;20.706;2024-01-06T05:34:58;16.88;;;9.98;;
38653;SDS011;24413;52.450;20.706;2024-01-06T05:37:23;16.45;;;9.30;;
38653;SDS011;24413;52.450;20.706;2024-01-06T05:39:49;13.45;;;8.32;;
38653;SDS011;24413;52.450;20.706;2024-01-06T05:42:14;11.68;;;8.80;;
38653;SDS011;24413;52.450;20.706;2024-01-06T05:44:40;11.10;;;8.15;;
38653;SDS011;24413;52.450;20.706;2024-01-06T05:47:06;14.00;;;9.18;;
38653;SDS011;24413;52.450;20.706;2024-01-06T05:49:33;12.80;;;8.93;;
38653;SDS011;24413;52.450;20.706;2024-01-06T05:51:58;13.88;;;8.32;;
38653;SDS011;24413;52.450;20.706;2024-01-06T05:54:24;13.63;;;8.95;;
38653;SDS011;24413;52.450;20.706;2024-01-06T05:56:49;11.95;;;8.45;;
38653;SDS011;24413;52.450;20.706;2024-01-06T05:59:14;17.80;;;8.15;;
38653;SDS011;24413;52.450;20.706;2024-01-06T06:01:40;14.63;;;9.27;;
38653;SDS011;24413;52.450;20.706;2024-01-06T06:04:05;15.90;;;8.07;;
38653;SDS011;24413;52.450;20.706;2024-01-06T06:06:31;13.27;;;9.05;;
38653;SDS011;24413;52.450;20.706;2024-01-06T06:08:56;14.48;;;8.02;;
38653;SDS011;24413;52.450;20.706;2024-01-06T06:11:22;13.20;;;8.35;;
38653;SDS011;24413;52.450;20.706;2024-01-06T06:13:47;13.38;;;8.05;;
38653;SDS011;24413;52.450;20.706;2024-01-06T06:16:12;11.75;;;8.60;;
38653;SDS011;24413;52.450;20.706;2024-01-06T06:18:38;17.95;;;8.65;;
38653;SDS011;24413;52.450;20.706;2024-01-06T06:21:04;14.13;;;8.68;;
38653;SDS011;24413;52.450;20.706;2024-01-06T06:23:30;11.30;;;7.70;;
38653;SDS011;24413;52.450;20.706;2024-01-06T06:25:55;11.48;;;7.85;;
38653;SDS011;24413;52.450;20.706;2024-01-06T06:28:21;12.40;;;8.40;;
38653;SDS011;24413;52.450;20.706;2024-01-06T06:30:46;19.08;;;9.38;;
38653;SDS011;24413;52.450;20.706;2024-01-06T06:33:12;17.85;;;10.60;;
38653;SDS011;24413;52.450;20.706;2024-01-06T06:35:37;16.67;;;9.27;;
38653;SDS011;24413;52.450;20.706;2024-01-06T06:38:03;16.50;;;9.82;;
38653;SDS011;24413;52.450;20.706;2024-01-06T06:40:28;19.85;;;11.13;;
38653;SDS011;24413;52.450;20.706;2024-01-06T06:42:55;23.02;;;11.68;;
38653;SDS011;24413;52.450;20.706;2024-01-06T06:45:20;19.25;;;10.57;;
38653;SDS011;24413;52.450;20.706;2024-01-06T06:47:48;15.98;;;8.82;;
38653;SDS011;24413;52.450;20.706;2024-01-06T06:50:14;14.70;;;8.77;;
38653;SDS011;24413;52.450;20.706;2024-01-06T06:52:44;20.05;;;9.52;;
38653;SDS011;24413;52.450;20.706;2024-01-06T06:55:09;22.00;;;11.45;;
38653;SDS011;24413;52.450;20.706;2024-01-06T06:57:35;16.50;;;10.27;;
38653;SDS011;24413;52.450;20.706;2024-01-06T07:00:01;17.92;;;10.07;;
38653;SDS011;24413;52.450;20.706;2024-01-06T07:02:27;14.80;;;9.65;;
38653;SDS011;24413;52.450;20.706;2024-01-06T07:04:52;17.13;;;9.45;;
38653;SDS011;24413;52.450;20.706;2024-01-06T07:07:18;15.07;;;9.23;;
38653;SDS011;24413;52.450;20.706;2024-01-06T07:09:44;12.00;;;8.70;;
38653;SDS011;24413;52.450;20.706;2024-01-06T07:12:09;14.02;;;9.45;;
38653;SDS011;24413;52.450;20.706;2024-01-06T07:14:34;20.27;;;11.25;;
38653;SDS011;24413;52.450;20.706;2024-01-06T07:17:00;15.75;;;9.18;;
38653;SDS011;24413;52.450;20.706;2024-01-06T07:19:25;14.07;;;8.65;;
38653;SDS011;24413;52.450;20.706;2024-01-06T07:21:50;17.27;;;10.48;;
38653;SDS011;24413;52.450;20.706;2024-01-06T07:24:16;14.63;;;9.55;;
38653;SDS011;24413;52.450;20.706;2024-01-06T07:26:41;13.27;;;9.40;;
38653;SDS011;24413;52.450;20.706;2024-01-06T07:29:07;15.65;;;9.35;;
38653;SDS011;24413;52.450;20.706;2024-01-06T07:31:33;20.77;;;13.90;;
38653;SDS011;24413;52.450;20.706;2024-01-06T07:33:59;31.05;;;21.23;;
38653;SDS011;24413;52.450;20.706;2024-01-06T07:36:24;21.52;;;15.15;;
38653;SDS011;24413;52.450;20.706;2024-01-06T07:38:50;21.50;;;13.73;;
38653;SDS011;24413;52.450;20.706;2024-01-06T07:41:17;14.65;;;11.23;;
38653;SDS011;24413;52.450;20.706;2024-01-06T07:43:42;18.88;;;12.23;;
38653;SDS011;24413;52.450;20.706;2024-01-06T07:46:08;16.98;;;12.00;;
38653;SDS011;24413;52.450;20.706;2024-01-06T07:48:34;16.15;;;10.93;;
38653;SDS011;24413;52.450;20.706;2024-01-06T07:51:00;20.77;;;11.30;;
38653;SDS011;24413;52.450;20.706;2024-01-06T07:53:26;15.05;;;9.23;;
38653;SDS011;24413;52.450;20.706;2024-01-06T07:55:52;15.68;;;12.55;;
38653;SDS011;24413;52.450;20.706;2024-01-06T07:58:17;30.55;;;12.90;;
38653;SDS011;24413;52.450;20.706;2024-01-06T08:00:43;16.40;;;9.60;;
38653;SDS011;24413;52.450;20.706;2024-01-06T08:03:08;12.68;;;8.77;;
38653;SDS011;24413;52.450;20.706;2024-01-06T08:05:33;17.90;;;10.70;;
38653;SDS011;24413;52.450;20.706;2024-01-06T08:07:59;16.25;;;10.25;;
38653;SDS011;24413;52.450;20.706;2024-01-06T08:10:24;36.47;;;19.27;;
38653;SDS011;24413;52.450;20.706;2024-01-06T08:12:50;39.92;;;21.45;;
38653;SDS011;24413;52.450;20.706;2024-01-06T08:15:15;54.22;;;25.02;;
38653;SDS011;24413;52.450;20.706;2024-01-06T08:17:41;50.92;;;23.38;;
38653;SDS011;24413;52.450;20.706;2024-01-06T08:20:08;57.85;;;24.35;;
38653;SDS011;24413;52.450;20.706;2024-01-06T08:22:33;90.38;;;37.90;;
38653;SDS011;24413;52.450;20.706;2024-01-06T08:24:59;81.75;;;31.08;;
38653;SDS011;24413;52.450;20.706;2024-01-06T08:27:24;96.90;;;35.47;;
38653;SDS011;24413;52.450;20.706;2024-01-06T08:29:56;106.25;;;35.83;;
38653;SDS011;24413;52.450;20.706;2024-01-06T08:32:22;78.35;;;30.52;;
38653;SDS011;24413;52.450;20.706;2024-01-06T08:34:47;101.93;;;34.25;;
38653;SDS011;24413;52.450;20.706;2024-01-06T08:37:12;105.95;;;34.38;;
38653;SDS011;24413;52.450;20.706;2024-01-06T08:39:38;48.97;;;20.15;;
38653;SDS011;24413;52.450;20.706;2024-01-06T08:42:03;20.05;;;10.77;;
38653;SDS011;24413;52.450;20.706;2024-01-06T08:44:29;13.88;;;8.80;;
38653;SDS011;24413;52.450;20.706;2024-01-06T08:46:54;16.45;;;9.55;;
38653;SDS011;24413;52.450;20.706;2024-01-06T08:49:19;14.77;;;7.60;;
38653;SDS011;24413;52.450;20.706;2024-01-06T08:51:44;14.00;;;6.88;;
38653;SDS011;24413;52.450;20.706;2024-01-06T08:54:10;14.18;;;7.03;;
38653;SDS011;24413;52.450;20.706;2024-01-06T08:56:35;10.95;;;7.50;;
38653;SDS011;24413;52.450;20.706;2024-01-06T08:59:01;11.73;;;7.07;;
38653;SDS011;24413;52.450;20.706;2024-01-06T09:01:26;21.25;;;9.48;;
38653;SDS011;24413;52.450;20.706;2024-01-06T09:03:51;19.08;;;8.77;;
38653;SDS011;24413;52.450;20.706;2024-01-06T09:06:16;13.93;;;7.85;;
38653;SDS011;24413;52.450;20.706;2024-01-06T09:08:42;22.30;;;10.55;;
38653;SDS011;24413;52.450;20.706;2024-01-06T09:11:07;19.92;;;10.60;;
38653;SDS011;24413;52.450;20.706;2024-01-06T09:13:32;16.08;;;8.50;;
38653;SDS011;24413;52.450;20.706;2024-01-06T09:15:58;10.80;;;7.30;;
38653;SDS011;24413;52.450;20.706;2024-01-06T09:18:24;15.50;;;9.10;;
38653;SDS011;24413;52.450;20.706;2024-01-06T09:20:50;21.05;;;10.15;;
38653;SDS011;24413;52.450;20.706;2024-01-06T09:23:15;12.43;;;7.97;;
38653;SDS011;24413;52.450;20.706;2024-01-06T09:25:40;14.65;;;9.00;;
38653;SDS011;24413;52.450;20.706;2024-01-06T09:28:06;14.18;;;8.98;;
38653;SDS011;24413;52.450;20.706;2024-01-06T09:30:31;14.38;;;8.38;;
38653;SDS011;24413;52.450;20.706;2024-01-06T09:32:56;12.05;;;7.43;;
38653;SDS011;24413;52.450;20.706;2024-01-06T09:35:21;12.70;;;8.00;;
38653;SDS011;24413;52.450;20.706;2024-01-06T09:37:47;16.15;;;9.07;;
38653;SDS011;24413;52.450;20.706;2024-01-06T09:40:12;11.63;;;8.23;;
38653;SDS011;24413;52.450;20.706;2024-01-06T09:42:41;15.90;;;8.25;;
38653;SDS011;24413;52.450;20.706;2024-01-06T09:45:06;12.88;;;7.80;;
38653;SDS011;24413;52.450;20.706;2024-01-06T09:47:33;14.27;;;8.50;;
38653;SDS011;24413;52.450;20.706;2024-01-06T09:49:58;15.93;;;9.98;;
38653;SDS011;24413;52.450;20.706;2024-01-06T09:52:25;13.45;;;9.30;;
38653;SDS011;24413;52.450;20.706;2024-01-06T09:54:52;17.08;;;9.50;;
38653;SDS011;24413;52.450;20.706;2024-01-06T09:57:18;16.60;;;10.38;;
38653;SDS011;24413;52.450;20.706;2024-01-06T09:59:44;24.10;;;12.32;;
38653;SDS011;24413;52.450;20.706;2024-01-06T10:02:09;21.40;;;10.27;;
38653;SDS011;24413;52.450;20.706;2024-01-06T10:04:38;21.95;;;13.10;;
38653;SDS011;24413;52.450;20.706;2024-01-06T10:07:03;18.42;;;9.63;;
38653;SDS011;24413;52.450;20.706;2024-01-06T10:09:28;17.88;;;9.35;;
38653;SDS011;24413;52.450;20.706;2024-01-06T10:11:57;30.52;;;17.13;;
38653;SDS011;24413;52.450;20.706;2024-01-06T10:14:24;31.38;;;17.88;;
38653;SDS011;24413;52.450;20.706;2024-01-06T10:16:49;29.95;;;17.63;;
38653;SDS011;24413;52.450;20.706;2024-01-06T10:19:15;42.88;;;22.40;;
38653;SDS011;24413;52.450;20.706;2024-01-06T10:21:40;21.10;;;11.10;;
38653;SDS011;24413;52.450;20.706;2024-01-06T10:24:07;23.25;;;11.25;;
38653;SDS011;24413;52.450;20.706;2024-01-06T10:26:33;36.70;;;15.57;;
38653;SDS011;24413;52.450;20.706;2024-01-06T10:28:58;29.52;;;15.75;;
38653;SDS011;24413;52.450;20.706;2024-01-06T10:31:24;27.70;;;15.48;;
38653;SDS011;24413;52.450;20.706;2024-01-06T10:33:49;16.65;;;8.93;;
38653;SDS011;24413;52.450;20.706;2024-01-06T10:36:15;13.38;;;7.43;;
38653;SDS011;24413;52.450;20.706;2024-01-06T10:38:40;17.38;;;9.70;;
38653;SDS011;24413;52.450;20.706;2024-01-06T10:41:06;21.90;;;10.95;;
38653;SDS011;24413;52.450;20.706;2024-01-06T10:43:35;9.85;;;6.60;;
38653;SDS011;24413;52.450;20.706;2024-01-06T10:46:03;15.23;;;8.60;;
38653;SDS011;24413;52.450;20.706;2024-01-06T10:48:32;14.18;;;7.45;;
38653;SDS011;24413;52.450;20.706;2024-01-06T10:50:59;32.67;;;19.42;;
38653;SDS011;24413;52.450;20.706;2024-01-06T10:53:26;39.35;;;18.15;;
38653;SDS011;24413;52.450;20.706;2024-01-06T10:55:51;79.97;;;33.35;;
38653;SDS011;24413;52.450;20.706;2024-01-06T10:58:17;46.17;;;22.27;;
38653;SDS011;24413;52.450;20.706;2024-01-06T11:00:42;34.13;;;17.75;;
38653;SDS011;24413;52.450;20.706;2024-01-06T11:03:08;31.77;;;14.43;;
38653;SDS011;24413;52.450;20.706;2024-01-06T11:05:34;41.00;;;17.52;;
38653;SDS011;24413;52.450;20.706;2024-01-06T11:08:00;47.28;;;22.20;;
38653;SDS011;24413;52.450;20.706;2024-01-06T11:10:26;61.25;;;24.17;;
38653;SDS011;24413;52.450;20.706;2024-01-06T11:13:14;67.72;;;24.45;;
38653;SDS011;24413;52.450;20.706;2024-01-06T11:15:40;103.30;;;36.42;;
38653;SDS011;24413;52.450;20.706;2024-01-06T11:18:06;45.55;;;18.83;;
38653;SDS011;24413;52.450;20.706;2024-01-06T11:20:31;20.08;;;8.77;;
38653;SDS011;24413;52.450;20.706;2024-01-06T11:22:57;15.13;;;6.90;;
38653;SDS011;24413;52.450;20.706;2024-01-06T11:25:41;15.60;;;5.93;;
38653;SDS011;24413;52.450;20.706;2024-01-06T11:28:07;24.73;;;11.85;;
38653;SDS011;24413;52.450;20.706;2024-01-06T11:30:33;39.92;;;15.80;;
38653;SDS011;24413;52.450;20.706;2024-01-06T11:32:59;21.77;;;9.25;;
38653;SDS011;24413;52.450;20.706;2024-01-06T11:35:28;13.32;;;5.93;;
38653;SDS011;24413;52.450;20.706;2024-01-06T11:37:55;9.88;;;6.15;;
38653;SDS011;24413;52.450;20.706;2024-01-06T11:43:00;21.40;;;10.07;;
38653;SDS011;24413;52.450;20.706;2024-01-06T11:45:25;25.02;;;11.52;;
38653;SDS011;24413;52.450;20.706;2024-01-06T11:47:54;21.33;;;9.38;;
38653;SDS011;24413;52.450;20.706;2024-01-06T11:50:19;19.80;;;8.02;;
38653;SDS011;24413;52.450;20.706;2024-01-06T11:52:44;12.68;;;6.60;;
38653;SDS011;24413;52.450;20.706;2024-01-06T11:55:10;18.33;;;8.25;;
38653;SDS011;24413;52.450;20.706;2024-01-06T11:57:35;18.35;;;8.23;;
38653;SDS011;24413;52.450;20.706;2024-01-06T12:00:00;11.80;;;7.00;;
38653;SDS011;24413;52.450;20.706;2024-01-06T12:02:26;12.50;;;7.07;;
38653;SDS011;24413;52.450;20.706;2024-01-06T12:04:52;22.70;;;8.68;;
38653;SDS011;24413;52.450;20.706;2024-01-06T12:07:18;17.52;;;6.20;;
38653;SDS011;24413;52.450;20.706;2024-01-06T12:09:44;21.63;;;10.55;;
38653;SDS011;24413;52.450;20.706;2024-01-06T12:12:10;16.08;;;8.95;;
38653;SDS011;24413;52.450;20.706;2024-01-06T12:14:36;89.35;;;35.70;;
38653;SDS011;24413;52.450;20.706;2024-01-06T12:17:01;81.55;;;38.60;;
38653;SDS011;24413;52.450;20.706;2024-01-06T12:19:32;36.53;;;15.63;;
38653;SDS011;24413;52.450;20.706;2024-01-06T12:21:57;28.63;;;10.02;;
38653;SDS011;24413;52.450;20.706;2024-01-06T12:24:23;25.48;;;9.27;;
38653;SDS011;24413;52.450;20.706;2024-01-06T12:26:48;24.27;;;11.10;;
38653;SDS011;24413;52.450;20.706;2024-01-06T12:29:14;72.40;;;31.55;;
38653;SDS011;24413;52.450;20.706;2024-01-06T12:31:40;71.35;;;29.83;;
38653;SDS011;24413;52.450;20.706;2024-01-06T12:34:06;43.92;;;16.58;;
38653;SDS011;24413;52.450;20.706;2024-01-06T12:36:32;28.38;;;11.35;;
38653;SDS011;24413;52.450;20.706;2024-01-06T12:38:58;24.15;;;9.48;;
38653;SDS011;24413;52.450;20.706;2024-01-06T12:41:23;22.45;;;8.07;;
38653;SDS011;24413;52.450;20.706;2024-01-06T12:43:49;17.77;;;8.10;;
38653;SDS011;24413;52.450;20.706;2024-01-06T12:46:14;29.15;;;10.15;;
38653;SDS011;24413;52.450;20.706;2024-01-06T12:48:40;38.42;;;17.50;;
38653;SDS011;24413;52.450;20.706;2024-01-06T12:51:05;26.90;;;13.93;;
38653;SDS011;24413;52.450;20.706;2024-01-06T12:53:30;12.35;;;6.80;;
38653;SDS011;24413;52.450;20.706;2024-01-06T12:55:55;18.58;;;7.35;;
38653;SDS011;24413;52.450;20.706;2024-01-06T12:58:21;21.63;;;8.05;;
38653;SDS011;24413;52.450;20.706;2024-01-06T13:00:46;22.33;;;8.90;;
38653;SDS011;24413;52.450;20.706;2024-01-06T13:03:12;21.77;;;8.77;;
38653;SDS011;24413;52.450;20.706;2024-01-06T13:05:38;20.52;;;8.75;;
38653;SDS011;24413;52.450;20.706;2024-01-06T13:08:03;16.50;;;8.07;;
38653;SDS011;24413;52.450;20.706;2024-01-06T13:10:29;17.67;;;9.40;;
38653;SDS011;24413;52.450;20.706;2024-01-06T13:12:54;26.90;;;11.30;;
38653;SDS011;24413;52.450;20.706;2024-01-06T13:15:20;18.05;;;7.30;;
38653;SDS011;24413;52.450;20.706;2024-01-06T13:17:45;14.15;;;6.57;;
38653;SDS011;24413;52.450;20.706;2024-01-06T13:20:11;14.77;;;5.75;;
38653;SDS011;24413;52.450;20.706;2024-01-06T13:22:36;14.90;;;6.07;;
38653;SDS011;24413;52.450;20.706;2024-01-06T13:25:02;14.98;;;7.15;;
38653;SDS011;24413;52.450;20.706;2024-01-06T13:27:27;12.38;;;7.45;;
38653;SDS011;24413;52.450;20.706;2024-01-06T13:29:53;17.23;;;9.05;;
38653;SDS011;24413;52.450;20.706;2024-01-06T13:32:19;15.95;;;7.95;;
38653;SDS011;24413;52.450;20.706;2024-01-06T13:34:45;25.45;;;6.57;;
38653;SDS011;24413;52.450;20.706;2024-01-06T13:37:10;10.50;;;5.43;;
38653;SDS011;24413;52.450;20.706;2024-01-06T13:39:35;10.07;;;4.95;;
38653;SDS011;24413;52.450;20.706;2024-01-06T13:42:01;9.40;;;4.10;;
38653;SDS011;24413;52.450;20.706;2024-01-06T13:44:28;7.70;;;4.38;;
38653;SDS011;24413;52.450;20.706;2024-01-06T13:46:53;7.80;;;4.63;;
38653;SDS011;24413;52.450;20.706;2024-01-06T13:49:19;7.90;;;3.67;;
38653;SDS011;24413;52.450;20.706;2024-01-06T13:51:45;10.25;;;3.70;;
38653;SDS011;24413;52.450;20.706;2024-01-06T13:54:10;9.00;;;4.90;;
38653;SDS011;24413;52.450;20.706;2024-01-06T13:56:36;8.13;;;4.00;;
38653;SDS011;24413;52.450;20.706;2024-01-06T13:59:02;10.10;;;4.35;;
38653;SDS011;24413;52.450;20.706;2024-01-06T14:01:27;9.63;;;3.95;;
38653;SDS011;24413;52.450;20.706;2024-01-06T14:03:52;8.48;;;5.13;;
38653;SDS011;24413;52.450;20.706;2024-01-06T14:06:23;12.15;;;5.80;;
38653;SDS011;24413;52.450;20.706;2024-01-06T14:08:49;14.23;;;6.63;;
38653;SDS011;24413;52.450;20.706;2024-01-06T14:11:15;14.13;;;8.02;;